createdAt,value
2022-11-17T00:03:28.491Z,962
2022-11-17T00:17:56.909Z,961.6
2022-11-17T00:32:25.449Z,961.2
2022-11-17T00:46:52.821Z,960.9
2022-11-17T01:01:20.619Z,960.5
2022-11-17T01:15:47.881Z,960.1
2022-11-17T01:30:15.887Z,959.8
2022-11-17T01:44:45.102Z,959.7
2022-11-17T01:59:12.103Z,959.3
2022-11-17T02:13:53.640Z,959.1
2022-11-17T02:28:13.215Z,958.9
2022-11-17T02:42:41.411Z,958.6
2022-11-17T02:57:10.221Z,958.3
2022-11-17T03:11:39.338Z,958.4
2022-11-17T03:26:05.536Z,958.1
2022-11-17T03:40:35.813Z,958.1
2022-11-17T03:55:02.332Z,958
2022-11-17T04:09:28.021Z,957.8
2022-11-17T04:23:56.325Z,957.6
2022-11-17T04:38:24.222Z,957.3
2022-11-17T04:52:51.111Z,957.3
2022-11-17T05:07:20.208Z,957.1
2022-11-17T05:21:47.879Z,957.1
2022-11-17T05:36:17.063Z,957.1
2022-11-17T05:50:45.554Z,957
2022-11-17T06:05:20.997Z,956.9
2022-11-17T06:19:44.136Z,956.8
2022-11-17T06:34:12.977Z,956.8
2022-11-17T06:48:41.081Z,956.9
2022-11-17T07:03:09.635Z,957
2022-11-17T07:17:38.022Z,957.1
2022-11-17T07:32:06.154Z,957.3
2022-11-17T07:46:35.382Z,957.4
2022-11-17T08:01:03.798Z,957.4
2022-11-17T08:15:32.216Z,957.7
2022-11-17T08:30:02.530Z,957.8
2022-11-17T08:44:29.291Z,957.9
2022-11-17T08:58:59.241Z,958
2022-11-17T09:13:27.823Z,958.2
2022-11-17T09:27:56.825Z,958.4
2022-11-17T09:42:25.712Z,958.4
2022-11-17T09:56:54.807Z,958.5
2022-11-17T10:11:23.283Z,958.6
2022-11-17T10:25:51.654Z,958.7
2022-11-17T10:40:26.431Z,958.9
2022-11-17T10:54:50.902Z,958.9
2022-11-17T11:09:20.479Z,958.9
2022-11-17T11:23:48.624Z,958.9
2022-11-17T11:38:15.587Z,959.1
2022-11-17T11:52:43.836Z,959.2
2022-11-17T12:07:12.940Z,959.4
2022-11-17T12:21:41.529Z,959.5
2022-11-17T12:36:10.524Z,959.5
2022-11-17T12:50:36.100Z,959.5
2022-11-17T13:05:03.104Z,959.7
2022-11-17T13:19:30.624Z,959.7
2022-11-17T13:33:58.773Z,959.7
2022-11-17T13:48:27.798Z,959.8
2022-11-17T14:02:54.845Z,959.8
2022-11-17T14:17:22.884Z,959.9
2022-11-17T14:31:51.036Z,959.8
2022-11-17T14:46:18.788Z,960.1
2022-11-17T15:00:47.264Z,960.1
2022-11-17T15:15:14.568Z,960.2
2022-11-17T15:29:42.394Z,960.3
2022-11-17T15:44:11.206Z,960.5
2022-11-17T15:58:36.797Z,960.6
2022-11-17T16:13:04.391Z,960.6
2022-11-17T16:27:31.273Z,960.7
2022-11-17T16:41:59.601Z,960.8
2022-11-17T16:56:26.405Z,960.9
2022-11-17T17:10:54.704Z,961.1
2022-11-17T17:25:20.222Z,961.2
2022-11-17T17:39:48.287Z,961.2
2022-11-17T17:54:16.240Z,961.3
2022-11-17T18:08:53.042Z,961.4
2022-11-17T18:23:16.910Z,961.5
2022-11-17T18:37:45.167Z,961.5
2022-11-17T18:52:12.972Z,961.6
2022-11-17T19:06:42.384Z,961.7
2022-11-17T19:21:11.029Z,961.7
2022-11-17T19:35:39.514Z,961.9
2022-11-17T19:50:06.919Z,962.1
2022-11-17T20:04:35.989Z,962.4
2022-11-17T20:19:02.956Z,962.5
2022-11-17T20:33:30.865Z,962.7
2022-11-17T20:47:58.256Z,962.8
2022-11-17T21:02:27.495Z,962.9
2022-11-17T21:16:54.060Z,963.1
2022-11-17T21:31:22.705Z,963.2
2022-11-17T21:45:50.547Z,963.2
2022-11-17T22:00:18.673Z,963.2
2022-11-17T22:14:47.663Z,963.3
2022-11-17T22:29:16.753Z,963.3
2022-11-17T22:43:44.395Z,963.5
2022-11-17T22:58:13.550Z,963.6
2022-11-17T23:12:40.835Z,963.7
2022-11-17T23:27:07.239Z,963.9
2022-11-17T23:41:35.838Z,964
2022-11-17T23:56:04.028Z,963.9
